Time;durP1;ratioP1;P1;durP2;ratioP2;P2;SDS_P1;SDS_P2;PMS_P1;PMS_P2;Temp;Humidity;BMP_temperature;BMP_pressure;BME280_temperature;BME280_humidity;BME280_pressure;Samples;Min_cycle;Max_cycle;Signal;HPM_P1;HPM_P2
2023/03/20 00:01:42;;;;;;;;;;;;;;;15.44;48.38;101346.41;4997527;28;1059;-43
2023/03/20 00:04:08;;;;;;;;;;;;;;;16.99;44.89;101332.56;4997013;28;1167;-44
2023/03/20 00:06:34;;;;;;;;;;;;;;;16.68;45.38;101335.03;4996952;28;1040;-40
2023/03/20 00:09:01;;;;;;;;;;;;;;;15.96;47.28;101332.31;4995987;28;1259;-41
2023/03/20 00:11:29;;;;;;;;;;;;;;;15.67;47.71;101329.75;4997420;28;1143;-42
2023/03/20 00:13:55;;;;;;;;;;;;;;;15.47;48.49;101330.28;4994633;28;1902;-44
2023/03/20 00:16:20;;;;;;;;;;;;;;;16.74;45.46;101321.06;4996281;28;846;-45
2023/03/20 00:18:46;;;;;;;;;;;;;;;17.29;44.15;101320.94;5028439;28;1151;-47
2023/03/20 00:21:15;;;;;;;;;;;;;;;16.33;46.20;101320.69;4996677;28;1029;-41
2023/03/20 00:23:41;;;;;;;;;;;;;;;15.94;47.25;101314.50;5028754;28;1123;-46
2023/03/20 00:26:08;;;;;;;;;;;;;;;15.64;47.85;101313.81;4996694;28;1127;-43
2023/03/20 00:28:43;;;;;;;;;;;;;;;15.44;48.48;101319.00;5015111;28;1003;-40
2023/03/20 00:31:15;;;;;;;;;;;;;;;16.31;46.68;101313.78;4996995;28;1135;-42
2023/03/20 00:33:40;;;;;;;;;;;;;;;17.02;44.81;101316.38;4996580;28;1914;-44
2023/03/20 00:36:07;;;;;;;;;;;;;;;16.08;46.69;101311.06;4996575;28;1127;-41
2023/03/20 00:38:33;;;;;;;;;;;;;;;15.73;47.97;101306.78;4995842;28;1061;-41
2023/03/20 00:40:59;;;;;;;;;;;;;;;15.55;48.01;101321.63;4996215;28;865;-42
2023/03/20 00:43:26;;;;;;;;;;;;;;;15.36;48.56;101315.63;4995398;28;1153;-45
2023/03/20 00:45:52;;;;;;;;;;;;;;;16.92;45.10;101308.06;5028213;28;1214;-43
2023/03/20 00:48:17;;;;;;;;;;;;;;;16.98;44.52;101304.25;5028130;28;1079;-40
2023/03/20 00:50:43;;;;;;;;;;;;;;;16.13;46.66;101295.75;4996629;28;1049;-44
2023/03/20 00:53:10;;;;;;;;;;;;;;;15.77;47.87;101303.53;4996294;28;1918;-40
2023/03/20 00:55:35;;;;;;;;;;;;;;;15.56;48.05;101303.28;5027897;28;1168;-45
2023/03/20 00:58:01;;;;;;;;;;;;;;;15.40;48.38;101313.19;5027957;28;1084;-42
2023/03/20 01:00:35;;;;;;;;;;;;;;;16.52;46.16;101307.44;4995507;28;1225;-43
2023/03/20 01:03:01;;;;;;;;;;;;;;;16.71;45.20;101305.09;4996567;28;1536;-42
2023/03/20 01:05:27;;;;;;;;;;;;;;;15.97;47.23;101306.56;5017150;28;910;-42
2023/03/20 01:07:53;;;;;;;;;;;;;;;15.64;48.16;101302.84;4990443;28;1248;-43
2023/03/20 01:10:22;;;;;;;;;;;;;;;16.14;46.83;101294.69;4995416;28;1086;-39
2023/03/20 01:12:49;;;;;;;;;;;;;;;17.08;44.31;101293.34;4996390;28;1930;-44
2023/03/20 01:15:18;;;;;;;;;;;;;;;16.12;46.79;101296.84;4996524;28;1283;-45
2023/03/20 01:17:44;;;;;;;;;;;;;;;15.74;47.64;101296.66;4984024;28;1180;-40
2023/03/20 01:20:13;;;;;;;;;;;;;;;15.52;48.17;101288.44;4996329;28;1208;-42
2023/03/20 01:22:39;;;;;;;;;;;;;;;15.64;48.07;101297.38;4993559;28;2279;-42
2023/03/20 01:25:05;;;;;;;;;;;;;;;17.23;44.33;101289.03;4996618;28;1620;-41
2023/03/20 01:27:30;;;;;;;;;;;;;;;16.40;46.10;101288.38;4999091;28;1070;-42
2023/03/20 01:29:56;;;;;;;;;;;;;;;15.87;47.45;101290.00;5000018;28;1028;-43
2023/03/20 01:32:22;;;;;;;;;;;;;;;15.57;48.07;101285.75;4998608;28;1914;-41
2023/03/20 01:34:50;;;;;;;;;;;;;;;15.39;48.53;101281.41;4998256;28;1362;-42
2023/03/20 01:37:23;;;;;;;;;;;;;;;15.29;48.90;101284.84;4999309;28;1122;-43
2023/03/20 01:39:49;;;;;;;;;;;;;;;17.00;44.66;101277.34;5014468;28;1099;-42
2023/03/20 01:42:15;;;;;;;;;;;;;;;16.37;46.24;101272.41;4982041;28;1173;-42
2023/03/20 01:44:41;;;;;;;;;;;;;;;15.76;47.74;101272.56;4998148;28;1909;-45
2023/03/20 01:47:13;;;;;;;;;;;;;;;15.50;48.44;101272.25;4998144;28;1387;-45
2023/03/20 01:49:57;;;;;;;;;;;;;;;16.76;45.53;101280.44;4997799;28;1049;-39
2023/03/20 01:52:23;;;;;;;;;;;;;;;16.54;45.53;101271.47;4999521;28;1906;-44
2023/03/20 01:54:48;;;;;;;;;;;;;;;15.89;47.44;101268.63;4998056;28;1142;-44
2023/03/20 01:57:16;;;;;;;;;;;;;;;15.70;47.75;101268.09;4999565;28;1212;-40
2023/03/20 01:59:43;;;;;;;;;;;;;;;15.47;48.48;101267.25;5014088;28;1359;-41
2023/03/20 02:02:09;;;;;;;;;;;;;;;16.48;45.94;101272.50;4998029;28;1228;-43
2023/03/20 02:04:36;;;;;;;;;;;;;;;16.98;44.51;101264.97;4979290;28;1416;-44
2023/03/20 02:07:06;;;;;;;;;;;;;;;16.07;46.78;101271.03;4994969;28;942;-42
2023/03/20 02:09:57;;;;;;;;;;;;;;;15.68;47.76;101270.25;4997962;28;1348;-40
2023/03/20 02:12:46;;;;;;;;;;;;;;;15.43;48.49;101265.28;4993321;28;1967;-40
2023/03/20 02:15:17;;;;;;;;;;;;;;;16.50;45.99;101259.38;4997669;28;1103;-43
2023/03/20 02:18:00;;;;;;;;;;;;;;;16.76;45.00;101257.66;5020636;28;1134;-40
2023/03/20 02:20:30;;;;;;;;;;;;;;;16.01;47.07;101255.59;4991276;28;1171;-40
2023/03/20 02:22:59;;;;;;;;;;;;;;;15.65;47.91;101263.38;4969496;28;1244;-41
2023/03/20 02:25:44;;;;;;;;;;;;;;;15.45;48.17;101257.66;4998065;28;1121;-39
2023/03/20 02:28:13;;;;;;;;;;;;;;;15.96;47.37;101254.72;5030437;28;1337;-41
2023/03/20 02:30:48;;;;;;;;;;;;;;;17.25;44.19;101251.09;4997382;28;1155;-40
2023/03/20 02:33:32;;;;;;;;;;;;;;;16.15;46.55;101244.22;4997612;28;1977;-44
2023/03/20 02:35:58;;;;;;;;;;;;;;;15.76;47.73;101247.06;5018488;28;1627;-43
2023/03/20 02:38:26;;;;;;;;;;;;;;;15.48;48.38;101246.16;4998006;28;1219;-39
2023/03/20 02:41:04;;;;;;;;;;;;;;;15.44;48.56;101243.09;5013038;28;1127;-46
2023/03/20 02:43:43;;;;;;;;;;;;;;;17.15;44.31;101249.13;4997251;28;1375;-43
2023/03/20 02:46:27;;;;;;;;;;;;;;;16.46;45.85;101242.56;4997207;28;1355;-43
2023/03/20 02:48:58;;;;;;;;;;;;;;;15.87;47.17;101237.88;5017132;28;1141;-41
2023/03/20 02:51:37;;;;;;;;;;;;;;;15.63;48.02;101240.06;5012987;28;1190;-42
2023/03/20 02:54:05;;;;;;;;;;;;;;;15.37;48.49;101248.75;4998259;28;1910;-42
2023/03/20 02:56:43;;;;;;;;;;;;;;;16.63;45.57;101236.13;4996829;28;1294;-41
2023/03/20 02:59:14;;;;;;;;;;;;;;;16.71;45.27;101228.22;5030115;28;1303;-42
2023/03/20 03:01:41;;;;;;;;;;;;;;;15.95;46.95;101234.69;5010181;28;1383;-39
2023/03/20 03:04:16;;;;;;;;;;;;;;;15.66;47.91;101223.09;4980455;28;1147;-44
2023/03/20 03:06:42;;;;;;;;;;;;;;;15.64;47.88;101220.59;5013166;28;1093;-45
2023/03/20 03:09:21;;;;;;;;;;;;;;;17.21;44.26;101219.78;4980939;28;1278;-43
2023/03/20 03:11:48;;;;;;;;;;;;;;;16.18;46.29;101222.56;5012709;28;1271;-42
2023/03/20 03:14:17;;;;;;;;;;;;;;;15.77;47.72;101219.38;5029391;28;1910;-39
2023/03/20 03:16:42;;;;;;;;;;;;;;;15.57;47.88;101214.47;4996564;28;1483;-43
2023/03/20 03:19:09;;;;;;;;;;;;;;;15.96;47.22;101211.63;4997331;28;1109;-42
2023/03/20 03:21:35;;;;;;;;;;;;;;;17.38;43.88;101220.41;4996455;28;1183;-46
2023/03/20 03:24:01;;;;;;;;;;;;;;;16.30;46.29;101224.31;4980150;28;1105;-40
2023/03/20 03:26:27;;;;;;;;;;;;;;;15.87;47.13;101218.69;5029480;28;1008;-44
2023/03/20 03:29:00;;;;;;;;;;;;;;;15.60;48.05;101211.25;5011989;28;1404;-43
2023/03/20 03:31:26;;;;;;;;;;;;;;;15.43;48.51;101225.03;4996508;28;1539;-42
2023/03/20 03:33:52;;;;;;;;;;;;;;;16.74;45.50;101219.44;5012346;28;1906;-43
2023/03/20 03:36:38;;;;;;;;;;;;;;;16.84;44.98;101221.44;5029309;28;1160;-44
2023/03/20 03:39:16;;;;;;;;;;;;;;;15.97;46.86;101224.28;4996019;28;1684;-42
2023/03/20 03:41:46;;;;;;;;;;;;;;;15.63;47.76;101229.91;5028027;28;1191;-41
2023/03/20 03:44:19;;;;;;;;;;;;;;;15.42;48.38;101236.22;4996242;28;1165;-45
2023/03/20 03:46:47;;;;;;;;;;;;;;;16.67;45.45;101232.59;5009142;28;1637;-42
2023/03/20 03:49:33;;;;;;;;;;;;;;;16.82;44.93;101228.31;4991623;28;1555;-41
2023/03/20 03:52:00;;;;;;;;;;;;;;;15.94;46.92;101237.69;4995437;28;1165;-44
2023/03/20 03:54:27;;;;;;;;;;;;;;;15.67;47.76;101236.53;4995745;28;1984;-45
2023/03/20 03:57:13;;;;;;;;;;;;;;;15.38;48.34;101230.44;4983701;28;1506;-43
2023/03/20 03:59:40;;;;;;;;;;;;;;;16.23;46.43;101230.84;5011857;28;1350;-47
2023/03/20 04:02:07;;;;;;;;;;;;;;;17.21;44.07;101239.84;5028672;28;1366;-52
2023/03/20 04:04:32;;;;;;;;;;;;;;;16.19;46.34;101231.63;4995647;28;1206;-52
2023/03/20 04:06:58;;;;;;;;;;;;;;;15.78;47.40;101237.50;4995781;28;1062;-52
2023/03/20 04:09:23;;;;;;;;;;;;;;;15.54;48.07;101231.44;4989977;28;1124;-51
2023/03/20 04:11:50;;;;;;;;;;;;;;;15.68;47.79;101238.22;4995401;28;1314;-52
2023/03/20 04:14:15;;;;;;;;;;;;;;;17.25;44.06;101229.13;4996084;28;1985;-51
2023/03/20 04:16:41;;;;;;;;;;;;;;;16.47;45.86;101235.19;4997021;28;1208;-52
2023/03/20 04:19:06;;;;;;;;;;;;;;;15.96;47.14;101230.84;4995118;28;1072;-50
2023/03/20 04:21:32;;;;;;;;;;;;;;;15.65;47.92;101232.41;4995833;28;1236;-49
2023/03/20 04:23:58;;;;;;;;;;;;;;;15.42;48.55;101238.94;4995496;28;1317;-49
2023/03/20 04:26:23;;;;;;;;;;;;;;;16.36;46.29;101242.50;4996621;28;910;-50
2023/03/20 04:28:49;;;;;;;;;;;;;;;16.96;44.62;101247.91;4995406;28;1168;-51
2023/03/20 04:31:33;;;;;;;;;;;;;;;16.02;47.01;101238.06;4996714;28;1048;-54
2023/03/20 04:34:07;;;;;;;;;;;;;;;15.65;47.73;101232.41;4995999;28;1910;-51
2023/03/20 04:36:51;;;;;;;;;;;;;;;15.49;48.27;101231.38;4992235;28;974;-49
2023/03/20 04:39:24;;;;;;;;;;;;;;;17.14;44.38;101241.16;4995414;28;1277;-51
2023/03/20 04:41:50;;;;;;;;;;;;;;;16.36;46.07;101240.56;4995060;28;1518;-50
2023/03/20 04:44:16;;;;;;;;;;;;;;;15.81;47.66;101253.47;4994860;28;1736;-48
2023/03/20 04:46:44;;;;;;;;;;;;;;;15.58;48.11;101254.50;4995496;28;1133;-49
2023/03/20 04:49:14;;;;;;;;;;;;;;;15.37;48.42;101245.19;4992935;28;1171;-50
2023/03/20 04:51:40;;;;;;;;;;;;;;;15.87;47.39;101246.13;5015051;28;1115;-47
2023/03/20 04:54:06;;;;;;;;;;;;;;;17.07;44.53;101252.41;4994580;28;1922;-46
2023/03/20 04:56:32;;;;;;;;;;;;;;;16.02;47.03;101260.00;4995380;28;1268;-46
2023/03/20 04:59:15;;;;;;;;;;;;;;;15.59;47.97;101247.94;4995304;28;1888;-44
2023/03/20 05:01:41;;;;;;;;;;;;;;;15.37;48.63;101243.28;5031365;28;1357;-44
2023/03/20 05:04:07;;;;;;;;;;;;;;;16.42;46.26;101253.25;4998796;28;1103;-47
2023/03/20 05:06:33;;;;;;;;;;;;;;;16.86;44.89;101246.75;5000258;28;1132;-44
2023/03/20 05:08:59;;;;;;;;;;;;;;;15.98;47.00;101255.28;4999003;28;1289;-47
2023/03/20 05:11:26;;;;;;;;;;;;;;;15.64;48.04;101252.66;4999113;28;1410;-52
2023/03/20 05:14:04;;;;;;;;;;;;;;;15.38;48.68;101253.16;4999671;28;1962;-47
2023/03/20 05:16:50;;;;;;;;;;;;;;;15.95;47.38;101256.63;4999732;28;1181;-49
2023/03/20 05:19:37;;;;;;;;;;;;;;;17.21;44.26;101263.75;4979928;28;1300;-46
2023/03/20 05:22:06;;;;;;;;;;;;;;;16.17;46.68;101261.22;4999797;28;1084;-47
2023/03/20 05:24:47;;;;;;;;;;;;;;;15.72;48.02;101263.19;4998482;28;1223;-44
2023/03/20 05:27:33;;;;;;;;;;;;;;;15.51;48.48;101259.34;4981931;28;1351;-43
2023/03/20 05:30:12;;;;;;;;;;;;;;;15.62;48.38;101252.09;4993357;28;1244;-46
2023/03/20 05:32:52;;;;;;;;;;;;;;;17.26;44.38;101250.03;4999711;28;1963;-50
2023/03/20 05:35:27;;;;;;;;;;;;;;;16.22;46.65;101250.31;4999439;28;1184;-44
2023/03/20 05:38:12;;;;;;;;;;;;;;;15.71;47.76;101243.16;4992413;28;1147;-45
2023/03/20 05:40:58;;;;;;;;;;;;;;;15.50;48.41;101246.72;4999472;28;1113;-50
2023/03/20 05:43:34;;;;;;;;;;;;;;;15.48;48.48;101252.47;4998152;28;1219;-51
2023/03/20 05:46:22;;;;;;;;;;;;;;;17.24;44.11;101249.47;4998779;28;1166;-46
2023/03/20 05:49:06;;;;;;;;;;;;;;;16.30;46.12;101249.84;4999578;28;1048;-45
2023/03/20 05:51:55;;;;;;;;;;;;;;;15.81;47.72;101253.47;4999400;28;1258;-46
2023/03/20 05:54:35;;;;;;;;;;;;;;;15.54;48.38;101256.09;4998936;28;1917;-48
2023/03/20 05:57:21;;;;;;;;;;;;;;;15.30;48.98;101253.59;4992306;28;1180;-46
2023/03/20 06:00:09;;;;;;;;;;;;;;;15.60;48.13;101257.84;4999165;28;1251;-47
2023/03/20 06:03:06;;;;;;;;;;;;;;;17.32;44.07;101254.47;4989460;28;1062;-49
2023/03/20 06:05:50;;;;;;;;;;;;;;;16.18;46.46;101254.66;4997733;28;1547;-47
2023/03/20 06:08:15;;;;;;;;;;;;;;;15.81;47.71;101263.59;4998115;28;1153;-46
2023/03/20 06:10:41;;;;;;;;;;;;;;;15.61;48.25;101256.75;4999026;28;1211;-46
2023/03/20 06:13:08;;;;;;;;;;;;;;;16.79;44.92;101256.28;4996893;28;1906;-47
2023/03/20 06:15:34;;;;;;;;;;;;;;;15.78;47.23;101256.69;4997558;28;1397;-48
2023/03/20 06:18:09;;;;;;;;;;;;;;;16.75;45.37;101251.31;4997661;28;1643;-48
2023/03/20 06:20:34;;;;;;;;;;;;;;;16.06;46.59;101258.41;4998290;28;1193;-45
2023/03/20 06:23:02;;;;;;;;;;;;;;;16.25;46.53;101252.53;4997814;28;1165;-47
2023/03/20 06:25:28;;;;;;;;;;;;;;;17.12;44.34;101259.84;4997800;28;1118;-48
2023/03/20 06:27:54;;;;;;;;;;;;;;;15.97;46.60;101259.94;5013666;28;1361;-45
2023/03/20 06:30:20;;;;;;;;;;;;;;;16.60;45.71;101252.00;4997022;28;1464;-47
2023/03/20 06:32:46;;;;;;;;;;;;;;;16.29;46.39;101261.91;4997549;28;1969;-43
2023/03/20 06:35:15;;;;;;;;;;;;;;;17.27;44.26;101255.25;5013687;28;1632;-45
2023/03/20 06:37:44;;;;;;;;;;;;;;;18.02;42.64;101258.88;5003337;28;1422;-49
2023/03/20 06:40:14;;;;;;;;;;;;;;;16.58;45.71;101253.41;4997894;28;1305;-50
2023/03/20 06:42:41;;;;;;;;;;;;;;;17.61;43.69;101259.53;5013612;28;1204;-55
2023/03/20 06:45:07;;;;;;;;;;;;;;;17.51;43.77;101262.25;4981113;28;1375;-55
2023/03/20 06:47:55;;;;;;;;;;;;;;;17.16;44.82;101260.97;4997246;28;1294;-50
2023/03/20 06:50:20;;;;;;;;;;;;;;;18.55;41.46;101261.41;4997262;28;1021;-47
2023/03/20 06:52:47;;;;;;;;;;;;;;;17.05;44.80;101254.56;5029808;28;1918;-53
2023/03/20 06:55:48;;;;;;;;;;;;;;;16.51;45.60;101267.34;4996925;28;1091;-53
2023/03/20 06:58:14;;;;;;;;;;;;;;;16.26;45.71;101276.16;4996966;28;1266;-52
2023/03/20 07:00:40;;;;;;;;;;;;;;;17.81;43.74;101266.22;4997382;28;1234;-51
2023/03/20 07:03:07;;;;;;;;;;;;;;;16.67;45.81;101271.03;4997098;28;1421;-53
2023/03/20 07:05:33;;;;;;;;;;;;;;;16.20;46.29;101275.28;4997105;28;1140;-56
2023/03/20 07:08:00;;;;;;;;;;;;;;;16.88;45.53;101282.19;5029106;28;1164;-53
2023/03/20 07:10:27;;;;;;;;;;;;;;;16.66;45.93;101280.38;4996815;28;1919;-52
2023/03/20 07:12:53;;;;;;;;;;;;;;;16.10;46.20;101282.56;4996896;28;1902;-54
2023/03/20 07:15:19;;;;;;;;;;;;;;;16.15;46.25;101279.88;5029816;28;1271;-54
2023/03/20 07:17:46;;;;;;;;;;;;;;;16.52;46.15;101281.88;5016185;28;1240;-54
2023/03/20 07:20:12;;;;;;;;;;;;;;;16.98;45.39;101271.28;4996725;28;1131;-54
2023/03/20 07:22:38;;;;;;;;;;;;;;;18.38;42.34;101281.78;5028752;28;1120;-55
2023/03/20 07:25:19;;;;;;;;;;;;;;;16.72;45.74;101279.31;4982425;28;1910;-55
2023/03/20 07:27:49;;;;;;;;;;;;;;;16.33;45.76;101271.28;4996478;28;1443;-54
2023/03/20 07:30:17;;;;;;;;;;;;;;;17.40;44.64;101273.22;5012312;28;1239;-56
2023/03/20 07:32:43;;;;;;;;;;;;;;;16.60;45.77;101281.41;4996660;28;1902;-56
2023/03/20 07:35:09;;;;;;;;;;;;;;;16.82;45.91;101261.28;4995950;28;1230;-55
2023/03/20 07:37:35;;;;;;;;;;;;;;;17.39;44.30;101274.28;4996336;28;1212;-56
2023/03/20 07:40:01;;;;;;;;;;;;;;;16.50;45.95;101275.84;4996166;28;1135;-54
2023/03/20 07:42:46;;;;;;;;;;;;;;;18.48;42.15;101267.19;4995750;28;1246;-55
2023/03/20 07:45:20;;;;;;;;;;;;;;;16.99;45.20;101267.44;4995840;28;1435;-58
2023/03/20 07:47:47;;;;;;;;;;;;;;;16.64;45.83;101268.81;4996269;28;1260;-57
2023/03/20 07:50:12;;;;;;;;;;;;;;;17.27;44.72;101265.44;4997253;28;1119;-56
2023/03/20 07:52:44;;;;;;;;;;;;;;;16.58;45.72;101272.63;4996067;28;1968;-56
2023/03/20 07:55:10;;;;;;;;;;;;;;;17.54;44.37;101268.03;4997208;28;1056;-55
2023/03/20 07:57:35;;;;;;;;;;;;;;;16.68;45.81;101263.63;4996092;28;1187;-56
2023/03/20 08:00:01;;;;;;;;;;;;;;;16.27;46.00;101260.50;4995693;28;1094;-56
2023/03/20 08:02:37;;;;;;;;;;;;;;;16.24;46.11;101265.44;4997125;28;1188;-55
2023/03/20 08:05:02;;;;;;;;;;;;;;;16.93;45.58;101263.84;4997218;28;1053;-55
2023/03/20 08:07:28;;;;;;;;;;;;;;;16.37;46.20;101260.63;4997159;28;1180;-53
2023/03/20 08:09:54;;;;;;;;;;;;;;;17.07;45.47;101264.22;4996975;28;1128;-54
2023/03/20 08:12:19;;;;;;;;;;;;;;;16.51;46.11;101269.22;4983482;28;1080;-56
2023/03/20 08:14:45;;;;;;;;;;;;;;;16.29;46.34;101270.13;5027671;28;2337;-56
2023/03/20 08:17:11;;;;;;;;;;;;;;;17.36;44.58;101271.25;4991222;28;1142;-55
2023/03/20 08:19:37;;;;;;;;;;;;;;;16.37;46.41;101269.69;4995123;28;1243;-57
2023/03/20 08:22:03;;;;;;;;;;;;;;;16.05;46.00;101266.88;4985343;28;1076;-57
2023/03/20 08:24:28;;;;;;;;;;;;;;;16.94;45.44;101261.91;4990336;28;1351;-57
2023/03/20 08:26:54;;;;;;;;;;;;;;;16.56;46.51;101272.03;4990150;28;1271;-55
2023/03/20 08:29:20;;;;;;;;;;;;;;;18.40;42.24;101265.81;4996625;28;1072;-56
2023/03/20 08:31:45;;;;;;;;;;;;;;;17.20;44.90;101273.91;4993337;28;1056;-55
2023/03/20 08:34:11;;;;;;;;;;;;;;;16.55;45.95;101267.63;4991837;28;1973;-56
2023/03/20 08:36:38;;;;;;;;;;;;;;;16.32;45.78;101266.06;4999661;28;1060;-55
2023/03/20 08:39:04;;;;;;;;;;;;;;;17.18;45.07;101276.09;5001275;28;1231;-55
2023/03/20 08:41:30;;;;;;;;;;;;;;;16.42;46.16;101280.72;5000485;28;1439;-54
2023/03/20 08:43:55;;;;;;;;;;;;;;;16.28;45.82;101273.97;4994389;28;1061;-54
2023/03/20 08:46:21;;;;;;;;;;;;;;;17.12;45.18;101277.16;5001019;28;1116;-55
2023/03/20 08:48:46;;;;;;;;;;;;;;;16.53;46.28;101272.56;4992961;28;1048;-55
2023/03/20 08:51:12;;;;;;;;;;;;;;;16.21;46.07;101273.34;4983809;28;1212;-55
2023/03/20 08:53:37;;;;;;;;;;;;;;;16.08;46.54;101266.38;4994079;28;1914;-55
2023/03/20 08:56:03;;;;;;;;;;;;;;;16.57;45.91;101277.25;4994874;28;1168;-54
2023/03/20 08:58:29;;;;;;;;;;;;;;;17.74;44.14;101271.97;5000959;28;1110;-55
2023/03/20 09:00:54;;;;;;;;;;;;;;;18.90;41.34;101266.13;5000882;28;1037;-55
2023/03/20 09:03:20;;;;;;;;;;;;;;;17.23;44.95;101278.03;5000160;28;1127;-55
2023/03/20 09:05:46;;;;;;;;;;;;;;;16.62;45.90;101270.16;5000388;28;1096;-52
2023/03/20 09:08:12;;;;;;;;;;;;;;;16.33;45.66;101259.50;5000426;28;1010;-55
2023/03/20 09:10:37;;;;;;;;;;;;;;;17.10;45.33;101251.88;5000530;28;1132;-56
2023/03/20 09:13:03;;;;;;;;;;;;;;;16.49;46.05;101263.19;4999977;28;1898;-54
2023/03/20 09:15:28;;;;;;;;;;;;;;;16.23;46.09;101251.97;4999891;28;1123;-55
2023/03/20 09:17:54;;;;;;;;;;;;;;;17.44;44.70;101255.06;5000560;28;1144;-55
2023/03/20 09:20:19;;;;;;;;;;;;;;;16.61;45.92;101247.38;5000169;28;1105;-54
2023/03/20 09:22:45;;;;;;;;;;;;;;;16.19;46.22;101237.94;4999589;28;1056;-53
2023/03/20 09:25:11;;;;;;;;;;;;;;;16.62;45.85;101251.78;5000056;28;1112;-51
2023/03/20 09:27:36;;;;;;;;;;;;;;;16.54;46.37;101255.81;5015476;28;1060;-48
2023/03/20 09:30:02;;;;;;;;;;;;;;;17.42;44.83;101249.00;4999966;28;1126;-49
2023/03/20 09:32:28;;;;;;;;;;;;;;;18.44;42.50;101247.66;4999640;28;901;-49
2023/03/20 09:34:54;;;;;;;;;;;;;;;17.06;45.20;101246.06;4999039;28;1918;-47
2023/03/20 09:37:19;;;;;;;;;;;;;;;16.56;45.95;101244.56;4999210;28;1073;-52
2023/03/20 09:39:45;;;;;;;;;;;;;;;16.53;46.07;101234.13;4999745;28;1041;-49
2023/03/20 09:42:29;;;;;;;;;;;;;;;16.99;45.69;101234.50;5000178;28;1037;-53
2023/03/20 09:45:04;;;;;;;;;;;;;;;16.46;46.14;101241.75;4999553;28;1095;-51
2023/03/20 09:47:33;;;;;;;;;;;;;;;16.72;46.04;101229.88;4999609;28;1052;-55
2023/03/20 09:50:01;;;;;;;;;;;;;;;16.89;45.88;101223.44;5000073;28;1020;-56
2023/03/20 09:52:26;;;;;;;;;;;;;;;16.63;46.63;101219.66;4999269;28;1060;-55
2023/03/20 09:54:53;;;;;;;;;;;;;;;18.43;42.46;101223.97;4999425;28;2009;-55
2023/03/20 09:57:26;;;;;;;;;;;;;;;17.02;45.36;101222.97;4999536;28;838;-53
2023/03/20 10:00:15;;;;;;;;;;;;;;;16.41;46.19;101215.06;4986882;28;1100;-55
2023/03/20 10:02:53;;;;;;;;;;;;;;;17.31;45.12;101214.31;4999599;28;1052;-55
2023/03/20 10:05:20;;;;;;;;;;;;;;;16.82;45.92;101209.91;4998816;28;1056;-56
2023/03/20 10:07:46;;;;;;;;;;;;;;;16.42;46.11;101198.38;4997871;28;1021;-55
2023/03/20 10:10:12;;;;;;;;;;;;;;;16.11;45.96;101204.66;4984026;28;1093;-54
2023/03/20 10:12:41;;;;;;;;;;;;;;;17.39;44.94;101189.06;4993190;28;1899;-54
2023/03/20 10:15:25;;;;;;;;;;;;;;;16.43;46.44;101200.00;4999121;28;1028;-51
2023/03/20 10:18:10;;;;;;;;;;;;;;;17.71;44.36;101198.25;4999011;28;1060;-50
2023/03/20 10:20:56;;;;;;;;;;;;;;;16.83;45.76;101186.00;4988672;28;1295;-46
2023/03/20 10:23:35;;;;;;;;;;;;;;;18.17;43.18;101192.03;4990659;28;1239;-49
2023/03/20 10:26:13;;;;;;;;;;;;;;;17.72;43.99;101195.22;4999389;28;1231;-48
2023/03/20 10:28:41;;;;;;;;;;;;;;;16.76;45.74;101192.56;4998029;28;1099;-49
2023/03/20 10:31:06;;;;;;;;;;;;;;;16.62;45.50;101185.03;4997680;28;1147;-47
2023/03/20 10:33:45;;;;;;;;;;;;;;;17.44;44.88;101191.81;4998344;28;2010;-52
2023/03/20 10:36:16;;;;;;;;;;;;;;;16.63;46.12;101179.28;4998768;28;1029;-51
2023/03/20 10:38:47;;;;;;;;;;;;;;;16.96;45.90;101188.31;4999012;28;1310;-49
2023/03/20 10:41:17;;;;;;;;;;;;;;;17.20;45.07;101187.91;4997401;28;1252;-51
2023/03/20 10:43:43;;;;;;;;;;;;;;;16.54;46.35;101189.13;4996739;28;1203;-50
2023/03/20 10:46:14;;;;;;;;;;;;;;;16.36;45.90;101182.94;5001387;28;1082;-51
2023/03/20 10:48:41;;;;;;;;;;;;;;;17.08;45.33;101177.94;4994322;28;1118;-52
2023/03/20 10:51:13;;;;;;;;;;;;;;;16.51;45.95;101181.38;5029227;28;1057;-51
2023/03/20 10:53:46;;;;;;;;;;;;;;;17.52;44.70;101181.44;4997255;28;1973;-52
2023/03/20 10:56:12;;;;;;;;;;;;;;;16.77;45.97;101165.91;4996752;28;1125;-53
2023/03/20 10:58:38;;;;;;;;;;;;;;;16.42;45.91;101164.59;4995699;28;1105;-51
2023/03/20 11:01:04;;;;;;;;;;;;;;;17.14;45.43;101158.72;4998221;28;1215;-53
2023/03/20 11:03:30;;;;;;;;;;;;;;;16.86;46.09;101158.84;4998181;28;1053;-55
2023/03/20 11:06:03;;;;;;;;;;;;;;;16.38;46.26;101157.97;4997768;28;1080;-50
2023/03/20 11:08:35;;;;;;;;;;;;;;;17.32;45.37;101157.41;4996322;28;1254;-55
2023/03/20 11:11:01;;;;;;;;;;;;;;;16.49;46.55;101153.38;4996669;28;1133;-56
2023/03/20 11:13:31;;;;;;;;;;;;;;;16.22;46.57;101146.06;4997935;28;1981;-55
2023/03/20 11:15:57;;;;;;;;;;;;;;;16.04;46.28;101153.56;4997941;28;1132;-54
2023/03/20 11:18:23;;;;;;;;;;;;;;;17.51;44.76;101155.03;4996741;28;1157;-55
2023/03/20 11:20:55;;;;;;;;;;;;;;;16.50;46.40;101161.34;4997302;28;1013;-54
2023/03/20 11:23:24;;;;;;;;;;;;;;;16.13;46.47;101145.72;4997885;28;1136;-54
2023/03/20 11:25:57;;;;;;;;;;;;;;;17.26;45.32;101151.09;4994109;28;1076;-55
2023/03/20 11:28:29;;;;;;;;;;;;;;;16.28;47.08;101141.44;4995054;28;1069;-56
2023/03/20 11:30:58;;;;;;;;;;;;;;;16.13;46.44;101142.13;4989763;28;1076;-55
2023/03/20 11:33:25;;;;;;;;;;;;;;;16.98;45.54;101139.41;4989841;28;1915;-55
2023/03/20 11:35:51;;;;;;;;;;;;;;;16.29;46.68;101138.41;5008793;28;1015;-53
2023/03/20 11:38:19;;;;;;;;;;;;;;;16.19;46.94;101144.66;4996333;28;1068;-54
2023/03/20 11:40:51;;;;;;;;;;;;;;;16.60;46.29;101125.72;4997766;28;1164;-53
2023/03/20 11:43:20;;;;;;;;;;;;;;;16.70;46.82;101129.63;4992230;28;1172;-54
2023/03/20 11:45:49;;;;;;;;;;;;;;;18.25;43.12;101122.66;4982343;28;1357;-50
2023/03/20 11:48:22;;;;;;;;;;;;;;;16.86;45.89;101128.63;4996259;28;1061;-52
2023/03/20 11:50:58;;;;;;;;;;;;;;;16.95;46.33;101128.97;4997169;28;1136;-51
2023/03/20 11:53:25;;;;;;;;;;;;;;;17.03;45.78;101127.66;4995991;28;1910;-51
2023/03/20 11:56:06;;;;;;;;;;;;;;;16.54;46.02;101128.72;4996170;28;1073;-51
2023/03/20 11:58:32;;;;;;;;;;;;;;;17.45;45.18;101121.19;4996922;28;1025;-51
2023/03/20 12:00:57;;;;;;;;;;;;;;;16.71;46.35;101114.81;4997619;28;1060;-55
2023/03/20 12:03:32;;;;;;;;;;;;;;;16.29;46.38;101110.97;4996060;28;1240;-52
2023/03/20 12:06:00;;;;;;;;;;;;;;;16.20;45.63;101109.81;4997356;28;1154;-46
2023/03/20 12:08:26;;;;;;;;;;;;;;;16.31;46.07;101107.97;4996798;28;1097;-45
2023/03/20 12:10:57;;;;;;;;;;;;;;;16.53;46.26;101099.59;4995786;28;1127;-54
2023/03/20 12:13:23;;;;;;;;;;;;;;;16.09;46.91;101100.69;4996972;28;1910;-49
2023/03/20 12:15:54;;;;;;;;;;;;;;;17.71;44.50;101104.72;4995807;28;1145;-53
2023/03/20 12:18:35;;;;;;;;;;;;;;;16.58;46.43;101097.72;4996434;28;1025;-48
2023/03/20 12:21:04;;;;;;;;;;;;;;;17.49;45.14;101088.47;4995891;28;1406;-49
2023/03/20 12:23:40;;;;;;;;;;;;;;;16.95;45.97;101090.50;4996819;28;1076;-50
2023/03/20 12:26:06;;;;;;;;;;;;;;;16.51;46.37;101086.16;5028131;28;1235;-50
2023/03/20 12:28:33;;;;;;;;;;;;;;;16.22;46.49;101088.44;4995587;28;1401;-51
2023/03/20 12:31:14;;;;;;;;;;;;;;;17.13;45.87;101091.16;4996926;28;1107;-52
2023/03/20 12:33:44;;;;;;;;;;;;;;;16.40;46.48;101088.00;4996717;28;1973;-50
2023/03/20 12:36:15;;;;;;;;;;;;;;;18.22;43.73;101084.69;4995841;28;1112;-56
2023/03/20 12:38:41;;;;;;;;;;;;;;;16.91;46.15;101076.50;4995834;28;1131;-47
2023/03/20 12:41:11;;;;;;;;;;;;;;;16.51;46.34;101086.16;4997249;28;1211;-53
2023/03/20 12:44:15;;;;;;;;;;;;;;;17.27;45.65;101082.09;4996544;28;1056;-53
2023/03/20 12:46:40;;;;;;;;;;;;;;;16.47;46.72;101076.78;4936499;29;1246;-52
2023/03/20 12:49:12;;;;;;;;;;;;;;;16.28;46.44;101070.91;4936336;29;1154;-47
2023/03/20 12:51:37;;;;;;;;;;;;;;;17.33;45.17;101071.94;4957334;28;1248;-49
2023/03/20 12:54:12;;;;;;;;;;;;;;;16.49;46.84;101068.28;4993495;28;1967;-44
2023/03/20 12:56:56;;;;;;;;;;;;;;;16.32;45.99;101068.47;4996339;28;1024;-47
2023/03/20 12:59:25;;;;;;;;;;;;;;;17.13;45.71;101061.72;4996835;28;1097;-52
2023/03/20 13:02:00;;;;;;;;;;;;;;;16.37;46.59;101063.84;4995469;28;1168;-42
2023/03/20 13:04:30;;;;;;;;;;;;;;;18.18;43.90;101062.38;4996871;28;1108;-52